sensor_id;sensor_type;location;lat;lon;timestamp;temperature;humidity
37268;DHT22;23154;52.542;13.362;2023-04-03T00:01:25;0.60;99.90
37268;DHT22;23154;52.542;13.362;2023-04-03T00:03:50;0.50;99.90
37268;DHT22;23154;52.542;13.362;2023-04-03T00:06:16;0.50;99.90
37268;DHT22;23154;52.542;13.362;2023-04-03T00:08:42;0.60;99.90
37268;DHT22;23154;52.542;13.362;2023-04-03T00:11:08;0.50;99.90
37268;DHT22;23154;52.542;13.362;2023-04-03T00:13:34;0.50;99.90
37268;DHT22;23154;52.542;13.362;2023-04-03T00:16:01;0.60;99.90
37268;DHT22;23154;52.542;13.362;2023-04-03T00:18:29;0.60;99.90
37268;DHT22;23154;52.542;13.362;2023-04-03T00:20:56;0.50;99.90
37268;DHT22;23154;52.542;13.362;2023-04-03T00:23:23;0.50;99.90
37268;DHT22;23154;52.542;13.362;2023-04-03T00:25:51;0.50;99.90
37268;DHT22;23154;52.542;13.362;2023-04-03T00:28:17;0.50;99.90
37268;DHT22;23154;52.542;13.362;2023-04-03T00:30:43;0.40;99.90
37268;DHT22;23154;52.542;13.362;2023-04-03T00:33:12;0.40;99.90
37268;DHT22;23154;52.542;13.362;2023-04-03T00:35:40;0.40;99.90
37268;DHT22;23154;52.542;13.362;2023-04-03T00:38:06;0.30;99.90
37268;DHT22;23154;52.542;13.362;2023-04-03T00:40:33;0.30;99.90
37268;DHT22;23154;52.542;13.362;2023-04-03T00:43:05;0.40;99.90
37268;DHT22;23154;52.542;13.362;2023-04-03T00:45:35;0.40;99.90
37268;DHT22;23154;52.542;13.362;2023-04-03T00:48:01;0.40;99.90
37268;DHT22;23154;52.542;13.362;2023-04-03T00:50:28;0.30;99.90
37268;DHT22;23154;52.542;13.362;2023-04-03T00:52:55;0.30;99.90
37268;DHT22;23154;52.542;13.362;2023-04-03T00:55:22;0.30;99.90
37268;DHT22;23154;52.542;13.362;2023-04-03T00:57:48;0.30;99.90
37268;DHT22;23154;52.542;13.362;2023-04-03T01:00:15;0.20;99.90
37268;DHT22;23154;52.542;13.362;2023-04-03T01:02:42;0.20;99.90
37268;DHT22;23154;52.542;13.362;2023-04-03T01:05:08;0.10;99.90
37268;DHT22;23154;52.542;13.362;2023-04-03T01:07:34;0.10;99.90
37268;DHT22;23154;52.542;13.362;2023-04-03T01:10:03;0.10;99.90
37268;DHT22;23154;52.542;13.362;2023-04-03T01:12:31;0.10;99.90
37268;DHT22;23154;52.542;13.362;2023-04-03T01:14:58;0.10;99.90
37268;DHT22;23154;52.542;13.362;2023-04-03T01:19:51;0.10;99.90
37268;DHT22;23154;52.542;13.362;2023-04-03T01:22:26;0.10;99.90
37268;DHT22;23154;52.542;13.362;2023-04-03T01:24:56;0.10;99.90
37268;DHT22;23154;52.542;13.362;2023-04-03T01:27:21;0.10;99.90
37268;DHT22;23154;52.542;13.362;2023-04-03T01:29:46;0.00;99.90
37268;DHT22;23154;52.542;13.362;2023-04-03T01:32:12;0.00;99.90
37268;DHT22;23154;52.542;13.362;2023-04-03T01:34:38;-0.10;99.90
37268;DHT22;23154;52.542;13.362;2023-04-03T01:37:03;-0.20;99.90
37268;DHT22;23154;52.542;13.362;2023-04-03T01:39:29;-0.20;99.90
37268;DHT22;23154;52.542;13.362;2023-04-03T01:41:54;-0.20;99.90
37268;DHT22;23154;52.542;13.362;2023-04-03T01:44:20;-0.20;99.90
37268;DHT22;23154;52.542;13.362;2023-04-03T01:46:46;-0.20;99.90
37268;DHT22;23154;52.542;13.362;2023-04-03T01:49:11;-0.20;99.90
37268;DHT22;23154;52.542;13.362;2023-04-03T01:51:37;-0.10;99.90
37268;DHT22;23154;52.542;13.362;2023-04-03T01:54:03;-0.20;99.90
37268;DHT22;23154;52.542;13.362;2023-04-03T01:56:28;-0.30;99.90
37268;DHT22;23154;52.542;13.362;2023-04-03T01:58:54;-0.20;99.90
37268;DHT22;23154;52.542;13.362;2023-04-03T02:01:19;-0.20;99.90
37268;DHT22;23154;52.542;13.362;2023-04-03T02:03:45;-0.30;99.90
37268;DHT22;23154;52.542;13.362;2023-04-03T02:06:11;-0.30;99.90
37268;DHT22;23154;52.542;13.362;2023-04-03T02:08:37;-0.40;99.90
37268;DHT22;23154;52.542;13.362;2023-04-03T02:11:02;-0.40;99.90
37268;DHT22;23154;52.542;13.362;2023-04-03T02:13:28;-0.40;99.90
37268;DHT22;23154;52.542;13.362;2023-04-03T02:15:53;-0.40;99.90
37268;DHT22;23154;52.542;13.362;2023-04-03T02:18:19;-0.50;99.90
37268;DHT22;23154;52.542;13.362;2023-04-03T02:20:46;-0.50;99.90
37268;DHT22;23154;52.542;13.362;2023-04-03T02:23:11;-0.50;99.90
37268;DHT22;23154;52.542;13.362;2023-04-03T02:25:37;-0.50;99.90
37268;DHT22;23154;52.542;13.362;2023-04-03T02:28:02;-0.50;99.90
37268;DHT22;23154;52.542;13.362;2023-04-03T02:30:28;-0.50;99.90
37268;DHT22;23154;52.542;13.362;2023-04-03T02:32:53;-0.50;99.90
37268;DHT22;23154;52.542;13.362;2023-04-03T02:35:19;-0.50;99.90
37268;DHT22;23154;52.542;13.362;2023-04-03T02:37:44;-0.40;99.90
37268;DHT22;23154;52.542;13.362;2023-04-03T02:40:10;-0.40;99.90
37268;DHT22;23154;52.542;13.362;2023-04-03T02:42:36;-0.40;99.90
37268;DHT22;23154;52.542;13.362;2023-04-03T02:45:02;-0.40;99.90
37268;DHT22;23154;52.542;13.362;2023-04-03T02:47:27;-0.40;99.90
37268;DHT22;23154;52.542;13.362;2023-04-03T02:49:53;-0.40;99.90
37268;DHT22;23154;52.542;13.362;2023-04-03T02:52:18;-0.40;99.90
37268;DHT22;23154;52.542;13.362;2023-04-03T02:54:44;-0.40;99.90
37268;DHT22;23154;52.542;13.362;2023-04-03T02:57:10;-0.40;99.90
37268;DHT22;23154;52.542;13.362;2023-04-03T02:59:36;-0.40;99.90
37268;DHT22;23154;52.542;13.362;2023-04-03T03:02:02;-0.40;99.90
37268;DHT22;23154;52.542;13.362;2023-04-03T03:04:27;-0.40;99.90
37268;DHT22;23154;52.542;13.362;2023-04-03T03:06:53;-0.40;99.90
37268;DHT22;23154;52.542;13.362;2023-04-03T03:09:18;-0.50;99.90
37268;DHT22;23154;52.542;13.362;2023-04-03T03:11:44;-0.50;99.90
37268;DHT22;23154;52.542;13.362;2023-04-03T03:14:09;-0.50;99.90
37268;DHT22;23154;52.542;13.362;2023-04-03T03:16:35;-0.60;99.90
37268;DHT22;23154;52.542;13.362;2023-04-03T03:19:00;-0.60;99.90
37268;DHT22;23154;52.542;13.362;2023-04-03T03:21:26;-0.70;99.90
37268;DHT22;23154;52.542;13.362;2023-04-03T03:23:51;-0.60;99.90
37268;DHT22;23154;52.542;13.362;2023-04-03T03:26:17;-0.70;99.90
37268;DHT22;23154;52.542;13.362;2023-04-03T03:28:42;-0.70;99.90
37268;DHT22;23154;52.542;13.362;2023-04-03T03:31:09;-0.70;99.90
37268;DHT22;23154;52.542;13.362;2023-04-03T03:33:35;-0.60;99.90
37268;DHT22;23154;52.542;13.362;2023-04-03T03:36:01;-0.70;99.90
37268;DHT22;23154;52.542;13.362;2023-04-03T03:38:26;-0.80;99.90
37268;DHT22;23154;52.542;13.362;2023-04-03T03:40:52;-0.80;99.90
37268;DHT22;23154;52.542;13.362;2023-04-03T03:43:18;-0.80;99.90
37268;DHT22;23154;52.542;13.362;2023-04-03T03:45:44;-0.80;99.90
37268;DHT22;23154;52.542;13.362;2023-04-03T03:48:10;-0.80;99.90
37268;DHT22;23154;52.542;13.362;2023-04-03T03:50:36;-0.80;99.90
37268;DHT22;23154;52.542;13.362;2023-04-03T03:53:02;-0.80;99.90
37268;DHT22;23154;52.542;13.362;2023-04-03T03:55:27;-0.80;99.90
37268;DHT22;23154;52.542;13.362;2023-04-03T03:57:53;-0.80;99.90
37268;DHT22;23154;52.542;13.362;2023-04-03T04:00:18;-0.80;99.90
37268;DHT22;23154;52.542;13.362;2023-04-03T04:02:44;-0.80;99.90
37268;DHT22;23154;52.542;13.362;2023-04-03T04:05:10;-0.80;99.90
37268;DHT22;23154;52.542;13.362;2023-04-03T04:07:35;-0.80;99.90
37268;DHT22;23154;52.542;13.362;2023-04-03T04:10:01;-0.80;99.90
37268;DHT22;23154;52.542;13.362;2023-04-03T04:12:27;-0.70;99.90
37268;DHT22;23154;52.542;13.362;2023-04-03T04:14:53;-0.70;99.90
37268;DHT22;23154;52.542;13.362;2023-04-03T04:17:18;-0.70;99.90
37268;DHT22;23154;52.542;13.362;2023-04-03T04:19:44;-0.70;99.90
37268;DHT22;23154;52.542;13.362;2023-04-03T04:22:09;-0.70;99.90
37268;DHT22;23154;52.542;13.362;2023-04-03T04:24:35;-0.70;99.90
37268;DHT22;23154;52.542;13.362;2023-04-03T04:27:00;-0.70;99.90
37268;DHT22;23154;52.542;13.362;2023-04-03T04:29:26;-0.70;99.90
37268;DHT22;23154;52.542;13.362;2023-04-03T04:31:51;-0.80;99.90
37268;DHT22;23154;52.542;13.362;2023-04-03T04:34:17;-0.80;99.90
37268;DHT22;23154;52.542;13.362;2023-04-03T04:36:42;-0.80;99.90
37268;DHT22;23154;52.542;13.362;2023-04-03T04:39:08;-0.80;99.90
37268;DHT22;23154;52.542;13.362;2023-04-03T04:41:33;-0.80;99.90
37268;DHT22;23154;52.542;13.362;2023-04-03T04:43:59;-0.80;99.90
37268;DHT22;23154;52.542;13.362;2023-04-03T04:46:25;-0.70;99.90
37268;DHT22;23154;52.542;13.362;2023-04-03T04:48:51;-0.80;99.90
37268;DHT22;23154;52.542;13.362;2023-04-03T04:51:16;-0.80;99.90
37268;DHT22;23154;52.542;13.362;2023-04-03T04:53:42;-0.80;99.90
37268;DHT22;23154;52.542;13.362;2023-04-03T04:56:07;-0.90;99.90
37268;DHT22;23154;52.542;13.362;2023-04-03T04:58:33;-0.90;99.90
37268;DHT22;23154;52.542;13.362;2023-04-03T05:00:59;-0.90;99.90
37268;DHT22;23154;52.542;13.362;2023-04-03T05:03:25;-0.80;99.90
37268;DHT22;23154;52.542;13.362;2023-04-03T05:05:51;-0.80;99.90
37268;DHT22;23154;52.542;13.362;2023-04-03T05:08:16;-0.70;99.90
37268;DHT22;23154;52.542;13.362;2023-04-03T05:10:42;-0.80;99.90
37268;DHT22;23154;52.542;13.362;2023-04-03T05:13:07;-0.70;99.90
37268;DHT22;23154;52.542;13.362;2023-04-03T05:15:33;-0.70;99.90
37268;DHT22;23154;52.542;13.362;2023-04-03T05:17:58;-0.70;99.90
37268;DHT22;23154;52.542;13.362;2023-04-03T05:20:24;-0.70;99.90
37268;DHT22;23154;52.542;13.362;2023-04-03T05:22:51;-0.70;99.90
37268;DHT22;23154;52.542;13.362;2023-04-03T05:25:16;-0.70;99.90
37268;DHT22;23154;52.542;13.362;2023-04-03T05:27:42;-0.60;99.90
37268;DHT22;23154;52.542;13.362;2023-04-03T05:30:08;-0.50;99.90
37268;DHT22;23154;52.542;13.362;2023-04-03T05:32:33;-0.50;99.90
37268;DHT22;23154;52.542;13.362;2023-04-03T05:34:59;-0.50;99.90
37268;DHT22;23154;52.542;13.362;2023-04-03T05:37:25;-0.40;99.90
37268;DHT22;23154;52.542;13.362;2023-04-03T05:39:50;-0.40;99.90
37268;DHT22;23154;52.542;13.362;2023-04-03T05:42:16;-0.40;99.90
37268;DHT22;23154;52.542;13.362;2023-04-03T05:44:42;-0.30;99.90
37268;DHT22;23154;52.542;13.362;2023-04-03T05:47:08;-0.30;99.90
37268;DHT22;23154;52.542;13.362;2023-04-03T05:49:33;-0.20;99.90
37268;DHT22;23154;52.542;13.362;2023-04-03T05:51:59;-0.10;99.90
37268;DHT22;23154;52.542;13.362;2023-04-03T05:54:25;0.00;99.90
37268;DHT22;23154;52.542;13.362;2023-04-03T05:56:51;0.10;99.90
37268;DHT22;23154;52.542;13.362;2023-04-03T05:59:17;0.00;99.90
37268;DHT22;23154;52.542;13.362;2023-04-03T06:01:42;0.10;99.90
37268;DHT22;23154;52.542;13.362;2023-04-03T06:04:08;0.20;99.90
37268;DHT22;23154;52.542;13.362;2023-04-03T06:06:51;0.20;99.90
37268;DHT22;23154;52.542;13.362;2023-04-03T06:09:17;0.30;99.90
37268;DHT22;23154;52.542;13.362;2023-04-03T06:11:43;0.30;99.90
37268;DHT22;23154;52.542;13.362;2023-04-03T06:14:09;0.40;99.90
37268;DHT22;23154;52.542;13.362;2023-04-03T06:16:35;0.40;99.90
37268;DHT22;23154;52.542;13.362;2023-04-03T06:19:00;0.50;99.90
37268;DHT22;23154;52.542;13.362;2023-04-03T06:21:26;0.50;99.90
37268;DHT22;23154;52.542;13.362;2023-04-03T06:23:52;0.60;99.90
37268;DHT22;23154;52.542;13.362;2023-04-03T06:26:17;0.70;99.90
37268;DHT22;23154;52.542;13.362;2023-04-03T06:28:43;0.70;99.90
37268;DHT22;23154;52.542;13.362;2023-04-03T06:31:08;0.80;99.90
37268;DHT22;23154;52.542;13.362;2023-04-03T06:33:34;0.90;99.90
37268;DHT22;23154;52.542;13.362;2023-04-03T06:36:03;1.00;99.90
37268;DHT22;23154;52.542;13.362;2023-04-03T06:38:29;1.10;99.90
37268;DHT22;23154;52.542;13.362;2023-04-03T06:40:54;1.20;99.90
37268;DHT22;23154;52.542;13.362;2023-04-03T06:43:21;1.20;99.90
37268;DHT22;23154;52.542;13.362;2023-04-03T06:45:46;1.20;99.90
37268;DHT22;23154;52.542;13.362;2023-04-03T06:48:12;1.30;99.90
37268;DHT22;23154;52.542;13.362;2023-04-03T06:50:38;1.40;99.90
37268;DHT22;23154;52.542;13.362;2023-04-03T06:53:03;1.50;99.90
37268;DHT22;23154;52.542;13.362;2023-04-03T06:55:29;1.60;99.90
37268;DHT22;23154;52.542;13.362;2023-04-03T06:57:55;1.70;99.90
37268;DHT22;23154;52.542;13.362;2023-04-03T07:00:20;1.70;99.90
37268;DHT22;23154;52.542;13.362;2023-04-03T07:02:46;1.70;99.90
37268;DHT22;23154;52.542;13.362;2023-04-03T07:05:11;1.80;99.90
37268;DHT22;23154;52.542;13.362;2023-04-03T07:07:37;1.90;99.90
37268;DHT22;23154;52.542;13.362;2023-04-03T07:10:04;2.10;99.90
37268;DHT22;23154;52.542;13.362;2023-04-03T07:12:29;2.10;99.90
37268;DHT22;23154;52.542;13.362;2023-04-03T07:14:55;2.30;99.90
37268;DHT22;23154;52.542;13.362;2023-04-03T07:17:21;2.60;99.90
37268;DHT22;23154;52.542;13.362;2023-04-03T07:19:46;3.00;99.90
37268;DHT22;23154;52.542;13.362;2023-04-03T07:22:12;3.10;99.90
37268;DHT22;23154;52.542;13.362;2023-04-03T07:24:38;3.30;99.90
37268;DHT22;23154;52.542;13.362;2023-04-03T07:27:04;3.50;99.90
37268;DHT22;23154;52.542;13.362;2023-04-03T07:29:29;3.30;99.90
37268;DHT22;23154;52.542;13.362;2023-04-03T07:31:56;3.30;99.90
37268;DHT22;23154;52.542;13.362;2023-04-03T07:34:22;3.50;99.90
37268;DHT22;23154;52.542;13.362;2023-04-03T07:36:47;3.60;99.90
37268;DHT22;23154;52.542;13.362;2023-04-03T07:39:13;3.60;99.90
37268;DHT22;23154;52.542;13.362;2023-04-03T07:41:38;3.60;99.90
37268;DHT22;23154;52.542;13.362;2023-04-03T07:44:04;3.60;99.90
37268;DHT22;23154;52.542;13.362;2023-04-03T07:46:30;3.50;99.90
37268;DHT22;23154;52.542;13.362;2023-04-03T07:48:56;3.60;99.90
37268;DHT22;23154;52.542;13.362;2023-04-03T07:51:22;3.70;99.90
37268;DHT22;23154;52.542;13.362;2023-04-03T07:53:47;3.90;99.90
37268;DHT22;23154;52.542;13.362;2023-04-03T07:56:13;4.00;99.90
37268;DHT22;23154;52.542;13.362;2023-04-03T07:58:39;4.00;99.90
37268;DHT22;23154;52.542;13.362;2023-04-03T08:01:05;4.10;99.90
37268;DHT22;23154;52.542;13.362;2023-04-03T08:03:31;3.90;99.90
37268;DHT22;23154;52.542;13.362;2023-04-03T08:06:01;3.90;99.90
37268;DHT22;23154;52.542;13.362;2023-04-03T08:08:27;4.20;99.90
37268;DHT22;23154;52.542;13.362;2023-04-03T08:10:58;4.20;99.90
37268;DHT22;23154;52.542;13.362;2023-04-03T08:13:24;4.60;99.90
37268;DHT22;23154;52.542;13.362;2023-04-03T08:15:49;4.70;99.90
37268;DHT22;23154;52.542;13.362;2023-04-03T08:18:16;4.90;99.90
37268;DHT22;23154;52.542;13.362;2023-04-03T08:20:42;4.90;99.50
37268;DHT22;23154;52.542;13.362;2023-04-03T08:23:08;5.10;99.50
37268;DHT22;23154;52.542;13.362;2023-04-03T08:25:37;5.20;99.00
37268;DHT22;23154;52.542;13.362;2023-04-03T08:28:02;5.30;98.30
37268;DHT22;23154;52.542;13.362;2023-04-03T08:30:28;5.20;98.80
37268;DHT22;23154;52.542;13.362;2023-04-03T08:32:54;5.20;98.00
37268;DHT22;23154;52.542;13.362;2023-04-03T08:35:20;4.90;97.20
37268;DHT22;23154;52.542;13.362;2023-04-03T08:37:46;4.90;97.00
37268;DHT22;23154;52.542;13.362;2023-04-03T08:40:15;4.80;97.40
37268;DHT22;23154;52.542;13.362;2023-04-03T08:50:24;4.60;96.10
37268;DHT22;23154;52.542;13.362;2023-04-03T08:52:52;4.70;96.10
37268;DHT22;23154;52.542;13.362;2023-04-03T08:55:28;4.60;96.20
37268;DHT22;23154;52.542;13.362;2023-04-03T08:57:59;4.90;96.20
37268;DHT22;23154;52.542;13.362;2023-04-03T09:00:27;4.60;95.80
37268;DHT22;23154;52.542;13.362;2023-04-03T09:02:54;4.90;95.80
37268;DHT22;23154;52.542;13.362;2023-04-03T09:08:12;4.90;95.40
37268;DHT22;23154;52.542;13.362;2023-04-03T09:10:41;4.90;95.30
37268;DHT22;23154;52.542;13.362;2023-04-03T09:13:13;4.80;95.00
37268;DHT22;23154;52.542;13.362;2023-04-03T09:15:45;5.10;94.60
37268;DHT22;23154;52.542;13.362;2023-04-03T09:18:20;5.30;93.80
37268;DHT22;23154;52.542;13.362;2023-04-03T09:23:30;5.70;93.00
37268;DHT22;23154;52.542;13.362;2023-04-03T09:26:00;6.00;92.40
37268;DHT22;23154;52.542;13.362;2023-04-03T09:28:27;6.10;91.70
37268;DHT22;23154;52.542;13.362;2023-04-03T09:30:53;5.80;92.10
37268;DHT22;23154;52.542;13.362;2023-04-03T09:33:18;5.70;92.60
37268;DHT22;23154;52.542;13.362;2023-04-03T09:35:45;5.20;92.50
37268;DHT22;23154;52.542;13.362;2023-04-03T09:45:41;4.80;93.40
37268;DHT22;23154;52.542;13.362;2023-04-03T09:55:59;6.00;92.60
37268;DHT22;23154;52.542;13.362;2023-04-03T09:58:29;6.50;91.50
37268;DHT22;23154;52.542;13.362;2023-04-03T10:00:58;6.40;91.40
37268;DHT22;23154;52.542;13.362;2023-04-03T10:03:32;6.40;91.00
37268;DHT22;23154;52.542;13.362;2023-04-03T10:05:58;6.20;91.50
37268;DHT22;23154;52.542;13.362;2023-04-03T10:11:04;6.40;90.40
37268;DHT22;23154;52.542;13.362;2023-04-03T10:13:31;6.20;90.40
37268;DHT22;23154;52.542;13.362;2023-04-03T10:15:59;6.20;90.70
37268;DHT22;23154;52.542;13.362;2023-04-03T10:18:39;6.30;90.20
37268;DHT22;23154;52.542;13.362;2023-04-03T10:21:14;6.20;90.00
37268;DHT22;23154;52.542;13.362;2023-04-03T10:23:45;6.00;90.10
37268;DHT22;23154;52.542;13.362;2023-04-03T10:28:57;6.20;89.30
37268;DHT22;23154;52.542;13.362;2023-04-03T10:40:04;6.10;87.40
37268;DHT22;23154;52.542;13.362;2023-04-03T10:44:43;6.40;87.20
37268;DHT22;23154;52.542;13.362;2023-04-03T10:47:20;6.40;86.80
37268;DHT22;23154;52.542;13.362;2023-04-03T10:49:53;6.60;86.00
37268;DHT22;23154;52.542;13.362;2023-04-03T10:52:28;6.60;85.50
37268;DHT22;23154;52.542;13.362;2023-04-03T10:57:24;6.70;86.80
37268;DHT22;23154;52.542;13.362;2023-04-03T10:59:55;6.90;84.80
37268;DHT22;23154;52.542;13.362;2023-04-03T11:02:25;6.90;85.10
37268;DHT22;23154;52.542;13.362;2023-04-03T11:05:36;6.80;86.70
37268;DHT22;23154;52.542;13.362;2023-04-03T11:07:46;6.90;85.30
37268;DHT22;23154;52.542;13.362;2023-04-03T11:10:14;7.00;84.50
37268;DHT22;23154;52.542;13.362;2023-04-03T11:12:43;6.90;83.80
37268;DHT22;23154;52.542;13.362;2023-04-03T11:15:17;6.40;86.40
37268;DHT22;23154;52.542;13.362;2023-04-03T11:17:49;6.80;86.80
37268;DHT22;23154;52.542;13.362;2023-04-03T11:20:17;6.50;88.30
37268;DHT22;23154;52.542;13.362;2023-04-03T11:22:48;6.80;87.40
37268;DHT22;23154;52.542;13.362;2023-04-03T11:25:23;6.80;86.30
37268;DHT22;23154;52.542;13.362;2023-04-03T11:27:55;6.70;86.80
37268;DHT22;23154;52.542;13.362;2023-04-03T11:30:23;6.50;87.30
37268;DHT22;23154;52.542;13.362;2023-04-03T11:32:54;6.40;87.40
37268;DHT22;23154;52.542;13.362;2023-04-03T11:35:21;6.40;88.20
37268;DHT22;23154;52.542;13.362;2023-04-03T11:37:49;6.40;88.70
37268;DHT22;23154;52.542;13.362;2023-04-03T11:42:48;6.50;89.90
37268;DHT22;23154;52.542;13.362;2023-04-03T12:13:38;6.10;90.50
37268;DHT22;23154;52.542;13.362;2023-04-03T12:16:05;6.00;90.90
37268;DHT22;23154;52.542;13.362;2023-04-03T12:21:03;6.30;90.80
37268;DHT22;23154;52.542;13.362;2023-04-03T12:23:33;6.10;90.90
37268;DHT22;23154;52.542;13.362;2023-04-03T12:26:00;6.10;91.00
37268;DHT22;23154;52.542;13.362;2023-04-03T12:28:29;6.10;90.50
37268;DHT22;23154;52.542;13.362;2023-04-03T12:30:55;6.00;91.20
37268;DHT22;23154;52.542;13.362;2023-04-03T12:36:03;6.20;91.00
37268;DHT22;23154;52.542;13.362;2023-04-03T12:38:41;6.20;91.20
37268;DHT22;23154;52.542;13.362;2023-04-03T12:46:17;6.20;90.60
37268;DHT22;23154;52.542;13.362;2023-04-03T12:51:13;7.00;88.60
37268;DHT22;23154;52.542;13.362;2023-04-03T12:53:39;7.30;87.90
37268;DHT22;23154;52.542;13.362;2023-04-03T12:59:14;7.30;84.90
37268;DHT22;23154;52.542;13.362;2023-04-03T13:01:41;6.50;87.00
37268;DHT22;23154;52.542;13.362;2023-04-03T13:04:08;6.10;89.20
37268;DHT22;23154;52.542;13.362;2023-04-03T13:06:40;6.00;89.60
37268;DHT22;23154;52.542;13.362;2023-04-03T13:09:18;6.00;89.90
37268;DHT22;23154;52.542;13.362;2023-04-03T13:11:44;5.80;90.40
37268;DHT22;23154;52.542;13.362;2023-04-03T13:14:21;6.00;90.60
37268;DHT22;23154;52.542;13.362;2023-04-03T13:16:54;6.10;90.40
37268;DHT22;23154;52.542;13.362;2023-04-03T13:19:22;5.90;90.70
37268;DHT22;23154;52.542;13.362;2023-04-03T13:21:48;5.80;91.00
37268;DHT22;23154;52.542;13.362;2023-04-03T13:24:15;5.90;91.10
37268;DHT22;23154;52.542;13.362;2023-04-03T13:26:41;5.90;91.20
37268;DHT22;23154;52.542;13.362;2023-04-03T13:29:15;6.00;91.20
37268;DHT22;23154;52.542;13.362;2023-04-03T13:31:42;6.10;91.00
37268;DHT22;23154;52.542;13.362;2023-04-03T13:34:18;5.90;91.10
37268;DHT22;23154;52.542;13.362;2023-04-03T13:41:43;5.80;91.30
37268;DHT22;23154;52.542;13.362;2023-04-03T13:46:52;5.80;91.20
37268;DHT22;23154;52.542;13.362;2023-04-03T13:49:19;6.00;91.10
37268;DHT22;23154;52.542;13.362;2023-04-03T13:51:44;6.10;90.90
37268;DHT22;23154;52.542;13.362;2023-04-03T13:54:19;5.90;91.30
37268;DHT22;23154;52.542;13.362;2023-04-03T13:56:46;6.00;91.30
37268;DHT22;23154;52.542;13.362;2023-04-03T14:01:39;6.00;91.10
37268;DHT22;23154;52.542;13.362;2023-04-03T14:04:16;6.00;91.60
37268;DHT22;23154;52.542;13.362;2023-04-03T14:06:42;5.90;91.40
37268;DHT22;23154;52.542;13.362;2023-04-03T14:09:08;5.80;91.40
37268;DHT22;23154;52.542;13.362;2023-04-03T14:11:34;5.90;91.60
37268;DHT22;23154;52.542;13.362;2023-04-03T14:14:02;5.90;91.70
37268;DHT22;23154;52.542;13.362;2023-04-03T14:16:32;6.00;91.90
37268;DHT22;23154;52.542;13.362;2023-04-03T14:18:58;5.80;91.90
37268;DHT22;23154;52.542;13.362;2023-04-03T14:21:24;5.90;91.60
37268;DHT22;23154;52.542;13.362;2023-04-03T14:23:51;6.10;91.40
37268;DHT22;23154;52.542;13.362;2023-04-03T14:26:18;6.00;91.40
37268;DHT22;23154;52.542;13.362;2023-04-03T14:28:44;6.10;91.70
37268;DHT22;23154;52.542;13.362;2023-04-03T14:31:11;6.10;91.20
37268;DHT22;23154;52.542;13.362;2023-04-03T14:33:36;6.10;91.10
37268;DHT22;23154;52.542;13.362;2023-04-03T14:36:10;6.00;91.60
37268;DHT22;23154;52.542;13.362;2023-04-03T14:38:36;6.30;91.70
37268;DHT22;23154;52.542;13.362;2023-04-03T14:41:02;7.00;90.90
37268;DHT22;23154;52.542;13.362;2023-04-03T14:43:27;7.10;90.50
37268;DHT22;23154;52.542;13.362;2023-04-03T14:45:53;6.80;90.50
37268;DHT22;23154;52.542;13.362;2023-04-03T14:48:20;6.50;91.20
37268;DHT22;23154;52.542;13.362;2023-04-03T14:50:46;6.10;91.70
37268;DHT22;23154;52.542;13.362;2023-04-03T14:53:12;5.80;92.30
37268;DHT22;23154;52.542;13.362;2023-04-03T14:55:40;5.60;92.90
37268;DHT22;23154;52.542;13.362;2023-04-03T14:58:08;5.50;93.30
37268;DHT22;23154;52.542;13.362;2023-04-03T15:00:34;5.40;93.60
37268;DHT22;23154;52.542;13.362;2023-04-03T15:02:59;5.40;93.60
37268;DHT22;23154;52.542;13.362;2023-04-03T15:05:25;5.30;93.80
37268;DHT22;23154;52.542;13.362;2023-04-03T15:07:55;5.20;94.20
37268;DHT22;23154;52.542;13.362;2023-04-03T15:10:23;5.10;94.50
37268;DHT22;23154;52.542;13.362;2023-04-03T15:12:50;5.00;94.70
37268;DHT22;23154;52.542;13.362;2023-04-03T15:15:16;5.00;95.10
37268;DHT22;23154;52.542;13.362;2023-04-03T15:17:42;5.00;95.10
37268;DHT22;23154;52.542;13.362;2023-04-03T15:20:26;4.90;95.30
37268;DHT22;23154;52.542;13.362;2023-04-03T15:22:53;4.80;95.60
37268;DHT22;23154;52.542;13.362;2023-04-03T15:25:19;4.80;96.00
37268;DHT22;23154;52.542;13.362;2023-04-03T15:27:44;4.70;96.20
37268;DHT22;23154;52.542;13.362;2023-04-03T15:30:14;4.80;96.60
37268;DHT22;23154;52.542;13.362;2023-04-03T15:32:40;4.80;96.30
37268;DHT22;23154;52.542;13.362;2023-04-03T15:35:05;4.90;96.10
37268;DHT22;23154;52.542;13.362;2023-04-03T15:37:31;4.90;96.20
37268;DHT22;23154;52.542;13.362;2023-04-03T15:39:57;5.00;96.00
37268;DHT22;23154;52.542;13.362;2023-04-03T15:42:22;5.00;95.90
37268;DHT22;23154;52.542;13.362;2023-04-03T15:44:48;5.00;96.00
37268;DHT22;23154;52.542;13.362;2023-04-03T15:47:13;5.00;95.90
37268;DHT22;23154;52.542;13.362;2023-04-03T15:49:39;5.00;95.90
37268;DHT22;23154;52.542;13.362;2023-04-03T15:52:05;4.90;96.10
37268;DHT22;23154;52.542;13.362;2023-04-03T15:54:30;5.00;95.60
37268;DHT22;23154;52.542;13.362;2023-04-03T15:56:56;4.90;95.80
37268;DHT22;23154;52.542;13.362;2023-04-03T15:59:21;4.90;95.60
37268;DHT22;23154;52.542;13.362;2023-04-03T16:01:47;4.80;95.50
37268;DHT22;23154;52.542;13.362;2023-04-03T16:04:13;4.70;95.70
37268;DHT22;23154;52.542;13.362;2023-04-03T16:06:39;4.60;95.90
37268;DHT22;23154;52.542;13.362;2023-04-03T16:09:05;4.40;96.40
37268;DHT22;23154;52.542;13.362;2023-04-03T16:11:31;4.40;96.60
37268;DHT22;23154;52.542;13.362;2023-04-03T16:13:57;4.40;96.90
37268;DHT22;23154;52.542;13.362;2023-04-03T16:16:23;4.40;97.00
37268;DHT22;23154;52.542;13.362;2023-04-03T16:18:50;4.40;96.90
37268;DHT22;23154;52.542;13.362;2023-04-03T16:21:16;4.70;96.80
37268;DHT22;23154;52.542;13.362;2023-04-03T16:23:42;5.10;96.40
37268;DHT22;23154;52.542;13.362;2023-04-03T16:26:08;5.30;96.20
37268;DHT22;23154;52.542;13.362;2023-04-03T16:28:34;5.60;95.60
37268;DHT22;23154;52.542;13.362;2023-04-03T16:31:00;5.70;95.30
37268;DHT22;23154;52.542;13.362;2023-04-03T16:33:27;5.70;95.30
37268;DHT22;23154;52.542;13.362;2023-04-03T16:35:53;5.60;95.50
37268;DHT22;23154;52.542;13.362;2023-04-03T16:38:19;5.40;95.70
37268;DHT22;23154;52.542;13.362;2023-04-03T16:40:45;5.10;96.40
37268;DHT22;23154;52.542;13.362;2023-04-03T16:43:10;5.00;96.90
37268;DHT22;23154;52.542;13.362;2023-04-03T16:45:36;4.90;97.10
37268;DHT22;23154;52.542;13.362;2023-04-03T16:48:02;4.90;97.30
37268;DHT22;23154;52.542;13.362;2023-04-03T16:50:27;4.90;97.70
37268;DHT22;23154;52.542;13.362;2023-04-03T16:52:53;4.80;97.90
37268;DHT22;23154;52.542;13.362;2023-04-03T16:55:19;4.70;98.30
37268;DHT22;23154;52.542;13.362;2023-04-03T16:57:46;4.60;98.60
37268;DHT22;23154;52.542;13.362;2023-04-03T17:00:12;4.40;99.00
37268;DHT22;23154;52.542;13.362;2023-04-03T17:02:39;4.40;98.70
37268;DHT22;23154;52.542;13.362;2023-04-03T17:05:04;4.40;99.10
37268;DHT22;23154;52.542;13.362;2023-04-03T17:07:30;4.30;99.50
37268;DHT22;23154;52.542;13.362;2023-04-03T17:09:56;4.30;99.90
37268;DHT22;23154;52.542;13.362;2023-04-03T17:12:22;4.30;99.80